Merenga, Russia
Current Conditions -  °F | °C
As of 4:00 AM on Saturday 29 Nov 2014 (Local Time) from UHMM Reporting Station
Scattered Clouds Scattered Clouds  
Wind Chill: -23°   Ceiling: Unl
Heat Index: -11°   Visibility: 6mi
Dew Point: -17°   Wind: 4mph
Humidity: 77%   Direction: 100°E
Pressure: 29.71"   Gusts: NA
Location:  61.9°N, 156.13°E
Report Text: UHMM 281700Z 10002MPS 9999 SCT100 M24/M27 Q1006 RMK QFE740
Loading
Personal Weather Stations






























Interactive Weather Map New forecast layout! Learn more

10-Day Weather Forecast

Advertisements
Track Severe Weather on mobile